Flight Track Log - Related Links

Times and Time Zones

All times are in EDT time to prevent confusion due to time zone crossing. See the BJS535 flight status page for this flight to view local times or setup timezone preferences in your user account.

Time Position Orientation Groundspeed Altitude Reporting Facility
EDT Latitude Longitude Course Direction KTS MPH feet Rate Location/Type
Tue 03:53:29 PM 34.7178 -92.2444 245° Southwest 158 182 1,200  Level Memphis Center
Tue 03:54:48 PM 34.6853 -92.3297 245° Southwest 243 280 6,800 4,047 Climbing Memphis Center
Tue 03:55:38 PM 34.6717 -92.3822 253° West 253 291 9,900 3,000 Climbing Memphis Center
Tue 03:56:38 PM 34.6411 -92.4775 249° West 275 316 12,300 2,700 Climbing Memphis Center
Tue 03:57:38 PM 34.6036 -92.5903 248° West 324 373 15,300 2,950 Climbing Memphis Center
Tue 03:58:38 PM 34.5639 -92.7075 248° West 363 418 18,200 3,000 Climbing Memphis Center
Tue 03:59:38 PM 34.5219 -92.8275 247° West 381 438 21,300 2,400 Climbing Memphis Center
Tue 04:00:38 PM 34.4797 -92.9497 247° West 393 452 23,000 1,050 Climbing Memphis Center
Tue 04:01:38 PM 34.4328 -93.0919 248° West 420 483 23,400 500 Climbing Memphis Center
Tue 04:02:38 PM 34.3861 -93.2289 248° West 443 510 24,000 300 Climbing Memphis Center
Tue 04:03:38 PM 34.3347 -93.3653 246° West 449 517 24,000  Level Memphis Center
Tue 04:04:29 PM 34.2942 -93.5047 251° West 458 527 24,000  Level Fort Worth Center
Tue 04:05:29 PM 34.2461 -93.6425 247° West 465 535 24,000  Level Fort Worth Center
Tue 04:06:29 PM 34.1961 -93.7853 247° West 465 535 24,000  Level Fort Worth Center
Tue 04:07:29 PM 34.1458 -93.9253 247° West 458 527 24,000  Level Fort Worth Center
Tue 04:08:29 PM 34.0975 -94.0653 247° West 458 527 24,000  Level Fort Worth Center
Tue 04:09:29 PM 34.0469 -94.2075 247° West 458 527 24,000  Level Fort Worth Center
Tue 04:10:29 PM 33.9961 -94.3472 246° West 463 533 24,000  Level Fort Worth Center
Tue 04:11:29 PM 33.9453 -94.4842 246° West 463 533 24,000  Level Fort Worth Center
Tue 04:12:29 PM 33.9003 -94.6158 248° West 463 533 24,000  Level Fort Worth Center
Tue 04:13:29 PM 33.8489 -94.7550 246° West 463 533 24,000  Level Fort Worth Center
Tue 04:14:29 PM 33.7994 -94.8914 246° West 463 533 24,000  Level Fort Worth Center
Tue 04:15:29 PM 33.7481 -95.0278 246° West 463 533 24,000  Level Fort Worth Center
Tue 04:16:29 PM 33.7006 -95.1664 248° West 463 533 24,000  Level Fort Worth Center
Tue 04:17:29 PM 33.6486 -95.3025 245° Southwest 458 527 24,000  Level Fort Worth Center
Tue 04:18:29 PM 33.5964 -95.4358 245° Southwest 458 527 24,000 -850 Level Fort Worth Center
Tue 04:19:29 PM 33.5464 -95.5767 247° West 453 521 22,300 -2,050 Descending Fort Worth Center
Tue 04:20:29 PM 33.4961 -95.7197 247° West 443 510 19,900 -2,400 Descending Fort Worth Center
Tue 04:21:29 PM 33.4497 -95.8425 246° West 418 481 17,500 -2,200 Descending Fort Worth Center
Tue 04:22:29 PM 33.4033 -95.9678 246° West 418 481 15,500 -2,100 Descending Fort Worth Center
Tue 04:23:29 PM 33.3586 -96.0828 245° Southwest 400 460 13,300 -1,950 Descending Fort Worth Center
Tue 04:24:29 PM 33.3181 -96.1928 246° West 374 430 11,600 -1,750 Descending Fort Worth Center
Tue 04:25:29 PM 33.2833 -96.2853 246° West 330 380 9,800 -1,400 Descending Fort Worth Center
Tue 04:26:29 PM 33.2444 -96.3653 240° Southwest 297 342 8,800 -1,500 Descending Fort Worth Center
Tue 04:27:29 PM 33.1992 -96.4353 232° Southwest 269 310 6,800 -1,900 Descending Fort Worth Center
Tue 04:28:29 PM 33.1558 -96.5053 234° Southwest 269 310 5,000 -1,400 Descending Fort Worth Center
Tue 04:29:29 PM 33.1144 -96.5775 236° Southwest 269 310 4,000 -500 Descending Fort Worth Center
Tue 04:30:29 PM 33.0753 -96.6497 237° Southwest 269 310 4,000 -350 Level Fort Worth Center
Tue 04:31:29 PM 33.0381 -96.7097 234° Southwest 263 303 3,300 -500 Descending Fort Worth Center
Tue 04:32:29 PM 32.9925 -96.7794 232° Southwest 258 297 3,000 -150 Descending Fort Worth Center
Tue 04:33:29 PM 32.9614 -96.8267 232° Southwest 218 251 3,000 -200 Level Fort Worth Center
Tue 04:34:29 PM 32.9261 -96.8739 228° Southwest 195 224 2,600 -700 Descending Fort Worth Center
Tue 04:35:29 PM 32.8928 -96.8889 201° Southwest 158 182 1,600 -850 Descending Fort Worth Center
Tue 04:36:29 PM 32.8678 -96.8717 150° Southeast 125 144 900 -500 Descending Fort Worth Center
Tue 04:37:29 PM 32.8364 -96.8594 162° South 114 131 600 -300 Descending Fort Worth Center

Login

Don't have an account? Register now (free) for customized features, flight alerts, and more!